createdAt,value
2022-12-27T00:00:02.465Z,1014.6
2022-12-27T00:15:02.903Z,1014.7
2022-12-27T00:30:02.340Z,1014.7
2022-12-27T00:45:02.791Z,1014.8
2022-12-27T01:00:09.534Z,1015.0
2022-12-27T01:15:02.787Z,1015.1
2022-12-27T01:30:02.092Z,1015.1
2022-12-27T01:45:02.524Z,1015.3
2022-12-27T02:00:02.957Z,1015.2
2022-12-27T02:15:02.390Z,1015.4
2022-12-27T02:30:02.843Z,1015.2
2022-12-27T02:45:02.262Z,1015.4
2022-12-27T03:00:02.809Z,1015.3
2022-12-27T03:15:03.133Z,1015.4
2022-12-27T03:30:02.782Z,1015.5
2022-12-27T03:45:03.030Z,1015.6
2022-12-27T04:00:02.429Z,1015.6
2022-12-27T04:15:02.873Z,1015.7
2022-12-27T04:30:02.338Z,1015.8
2022-12-27T04:45:02.852Z,1015.8
2022-12-27T05:00:02.189Z,1015.9
2022-12-27T05:15:02.853Z,1016.0
2022-12-27T05:45:02.519Z,1016.4
2022-12-27T06:00:02.976Z,1016.5
2022-12-27T06:15:02.400Z,1016.8
2022-12-27T06:30:02.852Z,1017.0
2022-12-27T06:45:02.251Z,1017.1
2022-12-27T07:00:02.880Z,1017.1
2022-12-27T07:15:02.142Z,1017.4
2022-12-27T07:30:02.600Z,1017.5
2022-12-27T07:45:03.036Z,1017.9
2022-12-27T08:00:02.452Z,1017.8
2022-12-27T08:15:02.949Z,1018.1
2022-12-27T08:30:02.330Z,1018.2
2022-12-27T08:45:02.890Z,1018.3
2022-12-27T09:00:02.221Z,1018.3
2022-12-27T09:15:02.663Z,1018.6
2022-12-27T09:30:03.096Z,1018.7
2022-12-27T09:45:02.519Z,1018.5
2022-12-27T10:00:02.979Z,1018.7
2022-12-27T10:15:02.414Z,1018.7
2022-12-27T10:30:02.926Z,1018.8
2022-12-27T10:45:02.289Z,1018.8
2022-12-27T11:00:02.923Z,1018.8
2022-12-27T11:15:02.152Z,1019.0
2022-12-27T11:30:02.614Z,1019.2
2022-12-27T11:45:03.080Z,1019.3
2022-12-27T12:00:02.486Z,1019.2
2022-12-27T12:15:02.958Z,1019.1
2022-12-27T12:30:02.373Z,1019.0
2022-12-27T12:45:02.947Z,1018.8
2022-12-27T13:00:02.231Z,1018.8
2022-12-27T13:15:02.681Z,1018.6
2022-12-27T13:30:06.700Z,1018.4
2022-12-27T13:45:02.544Z,1018.3
2022-12-27T14:00:03.013Z,1018.2
2022-12-27T14:15:02.426Z,1018.0
2022-12-27T14:30:02.976Z,1017.8
2022-12-27T14:45:02.279Z,1017.8
2022-12-27T15:00:02.950Z,1017.7
2022-12-27T15:15:02.153Z,1017.8
2022-12-27T15:30:02.680Z,1017.5
2022-12-27T16:00:02.486Z,1017.4
2022-12-27T16:15:03.001Z,1017.4
2022-12-27T16:30:02.372Z,1017.2
2022-12-27T16:45:03.105Z,1017.2
2022-12-27T17:00:02.239Z,1017.3
2022-12-27T17:15:02.691Z,1017.1
2022-12-27T17:30:03.127Z,1017.0
2022-12-27T17:45:02.544Z,1017.0
2022-12-27T18:00:03.031Z,1016.7
2022-12-27T18:15:02.410Z,1016.5
2022-12-27T18:30:03.065Z,1016.3
2022-12-27T18:45:02.268Z,1016.2
2022-12-27T19:00:02.748Z,1016.1
2022-12-27T19:15:03.162Z,1015.7
2022-12-27T19:30:02.578Z,1015.6
2022-12-27T19:45:03.062Z,1015.5
2022-12-27T20:00:08.456Z,1015.4
2022-12-27T20:15:03.109Z,1015.4
2022-12-27T20:30:02.308Z,1015.1
2022-12-27T20:45:02.771Z,1015.0
2022-12-27T21:00:03.209Z,1014.9
2022-12-27T21:15:02.638Z,1014.9
2022-12-27T21:30:03.113Z,1014.7
2022-12-27T21:45:02.532Z,1014.6
2022-12-27T22:00:03.112Z,1014.5
2022-12-27T22:15:02.415Z,1014.6
2022-12-27T22:30:03.078Z,1014.1
2022-12-27T22:45:02.281Z,1013.8
2022-12-27T23:00:02.794Z,1013.6
2022-12-27T23:15:02.147Z,1013.4
2022-12-27T23:30:02.582Z,1013.1
2022-12-27T23:45:03.109Z,1012.6
